createdAt,value
2023-02-23T00:02:03.806Z,100771.06
2023-02-23T00:04:31.994Z,100778.47
2023-02-23T00:06:59.847Z,100772.16
2023-02-23T00:09:35.098Z,100775.47
2023-02-23T00:12:09.663Z,100763.25
2023-02-23T00:14:38.716Z,100761.56
2023-02-23T00:17:14.934Z,100764.84
2023-02-23T00:19:43.547Z,100775.03
2023-02-23T00:22:14.535Z,100765.72
2023-02-23T00:24:42.789Z,100762.53
2023-02-23T00:27:17.357Z,100752.66
2023-02-23T00:29:49.215Z,100760.91
2023-02-23T00:32:19.952Z,100751.94
2023-02-23T00:34:49.888Z,100746.03
2023-02-23T00:37:19.494Z,100752.59
2023-02-23T00:39:47.394Z,100756.13
2023-02-23T00:42:15.837Z,100758.75
2023-02-23T00:44:43.655Z,100761.31
2023-02-23T00:47:11.496Z,100759.66
2023-02-23T00:49:39.348Z,100754.44
2023-02-23T00:52:07.640Z,100760.00
2023-02-23T00:54:35.522Z,100760.84
2023-02-23T00:57:04.079Z,100755.59
2023-02-23T00:59:31.952Z,100759.72
2023-02-23T01:01:59.942Z,100756.59
2023-02-23T01:04:27.872Z,100760.00
2023-02-23T01:06:55.732Z,100757.00
2023-02-23T01:09:28.357Z,100758.19
2023-02-23T01:11:57.734Z,100749.25
2023-02-23T01:14:26.129Z,100746.59
2023-02-23T01:16:55.014Z,100749.91
2023-02-23T01:19:22.926Z,100745.16
2023-02-23T01:21:50.899Z,100743.41
2023-02-23T01:24:18.727Z,100733.22
2023-02-23T01:26:47.624Z,100732.97
2023-02-23T01:29:17.941Z,100735.66
2023-02-23T01:31:51.154Z,100734.75
2023-02-23T01:34:21.652Z,100734.28
2023-02-23T01:36:49.997Z,100735.22
2023-02-23T01:39:20.709Z,100732.00
2023-02-23T01:41:51.705Z,100732.50
2023-02-23T01:44:19.399Z,100730.56
2023-02-23T01:46:49.262Z,100727.38
2023-02-23T01:49:25.643Z,100724.84
2023-02-23T01:52:13.336Z,100722.09
2023-02-23T01:54:53.553Z,100724.06
2023-02-23T01:57:27.120Z,100718.00
2023-02-23T01:59:55.661Z,100715.06
2023-02-23T02:02:33.357Z,100718.06
2023-02-23T02:05:04.567Z,100718.72
2023-02-23T02:07:35.213Z,100711.41
2023-02-23T02:10:13.690Z,100710.50
2023-02-23T02:12:56.223Z,100707.72
2023-02-23T02:15:30.073Z,100711.38
2023-02-23T02:18:43.794Z,100703.63
2023-02-23T02:21:51.884Z,100696.59
2023-02-23T02:25:11.119Z,100702.84
2023-02-23T02:28:22.249Z,100693.53
2023-02-23T02:31:43.514Z,100693.41
2023-02-23T02:35:18.890Z,100684.38
2023-02-23T02:38:34.800Z,100686.28
2023-02-23T02:41:20.579Z,100682.91
2023-02-23T02:48:12.009Z,100675.22
2023-02-23T02:51:04.383Z,100671.31
2023-02-23T02:53:58.091Z,100675.34
2023-02-23T02:56:27.162Z,100682.19
2023-02-23T02:58:55.777Z,100678.56
2023-02-23T03:01:42.190Z,100670.28
2023-02-23T03:04:43.853Z,100665.63
2023-02-23T03:07:45.935Z,100662.31
2023-02-23T03:11:22.464Z,100661.16
2023-02-23T03:15:04.961Z,100660.56
2023-02-23T03:18:06.441Z,100660.53
2023-02-23T03:20:52.660Z,100658.56
2023-02-23T03:24:05.841Z,100648.97
2023-02-23T03:27:06.306Z,100652.00
2023-02-23T03:30:22.166Z,100642.91
2023-02-23T03:33:23.929Z,100646.13
2023-02-23T03:36:26.808Z,100646.25
2023-02-23T03:39:59.665Z,100644.75
2023-02-23T03:42:54.203Z,100656.22
2023-02-23T03:45:44.285Z,100646.31
2023-02-23T03:48:34.906Z,100651.78
2023-02-23T03:51:27.636Z,100658.59
2023-02-23T03:54:37.621Z,100645.69
2023-02-23T03:57:30.998Z,100648.75
2023-02-23T04:00:23.992Z,100647.47
2023-02-23T04:03:13.117Z,100642.75
2023-02-23T04:06:02.496Z,100637.91
2023-02-23T04:08:56.669Z,100640.81
2023-02-23T04:12:09.511Z,100641.69
2023-02-23T04:14:59.699Z,100640.44
2023-02-23T04:17:32.439Z,100634.41
2023-02-23T04:20:00.677Z,100642.16
2023-02-23T04:22:28.576Z,100633.75
2023-02-23T04:24:56.817Z,100630.94
2023-02-23T04:27:26.019Z,100631.00
2023-02-23T04:29:53.918Z,100633.34
2023-02-23T04:32:21.955Z,100623.94
2023-02-23T04:34:50.384Z,100625.97
2023-02-23T04:37:18.502Z,100627.72
2023-02-23T04:39:49.677Z,100623.00
2023-02-23T04:42:19.113Z,100623.22
2023-02-23T04:44:47.400Z,100623.88
2023-02-23T04:47:16.572Z,100619.47
2023-02-23T04:49:44.811Z,100619.34
2023-02-23T04:52:12.728Z,100618.28
2023-02-23T04:54:41.760Z,100615.06
2023-02-23T04:57:10.230Z,100616.25
2023-02-23T04:59:38.197Z,100615.63
2023-02-23T05:02:06.403Z,100611.91
2023-02-23T05:04:35.380Z,100614.56
2023-02-23T05:07:04.528Z,100608.84
2023-02-23T05:09:33.339Z,100616.84
2023-02-23T05:12:01.548Z,100622.28
2023-02-23T05:14:30.157Z,100619.19
2023-02-23T05:16:58.059Z,100618.88
2023-02-23T05:19:27.311Z,100613.19
2023-02-23T05:21:55.208Z,100612.72
2023-02-23T05:24:23.037Z,100602.31
2023-02-23T05:26:51.073Z,100606.38
2023-02-23T05:29:19.238Z,100601.03
2023-02-23T05:31:48.489Z,100599.56
2023-02-23T05:34:16.891Z,100594.00
2023-02-23T05:36:44.746Z,100593.81
2023-02-23T05:39:12.625Z,100596.06
2023-02-23T05:41:42.894Z,100591.34
2023-02-23T05:44:10.778Z,100599.41
2023-02-23T05:46:39.235Z,100604.50
2023-02-23T05:49:07.232Z,100603.38
2023-02-23T05:51:35.453Z,100606.19
2023-02-23T05:54:03.423Z,100610.00
2023-02-23T05:56:31.360Z,100619.56
2023-02-23T05:58:59.788Z,100611.13
2023-02-23T06:01:28.189Z,100615.41
2023-02-23T06:03:56.629Z,100619.88
2023-02-23T06:06:25.629Z,100624.53
2023-02-23T06:08:54.614Z,100621.00
2023-02-23T06:11:22.852Z,100615.63
2023-02-23T06:13:50.824Z,100627.09
2023-02-23T06:16:18.880Z,100621.03
2023-02-23T06:18:47.053Z,100626.50
2023-02-23T06:21:14.973Z,100628.50
2023-02-23T06:23:43.029Z,100629.09
2023-02-23T06:26:11.023Z,100633.28
2023-02-23T06:28:38.887Z,100629.69
2023-02-23T06:31:06.841Z,100629.75
2023-02-23T06:33:35.128Z,100637.66
2023-02-23T06:36:03.095Z,100641.09
2023-02-23T06:38:31.020Z,100631.84
2023-02-23T06:40:58.926Z,100637.09
2023-02-23T06:43:26.918Z,100644.16
2023-02-23T06:45:55.635Z,100649.34
2023-02-23T06:48:23.469Z,100643.84
2023-02-23T06:50:51.338Z,100647.25
2023-02-23T06:53:21.411Z,100652.28
2023-02-23T06:55:49.369Z,100657.31
2023-02-23T06:58:17.684Z,100654.81
2023-02-23T07:00:46.780Z,100658.09
2023-02-23T07:03:15.481Z,100651.56
2023-02-23T07:05:43.447Z,100655.56
2023-02-23T07:08:11.327Z,100652.69
2023-02-23T07:10:39.497Z,100649.47
2023-02-23T07:13:07.335Z,100652.13
2023-02-23T07:15:41.759Z,100651.94
2023-02-23T07:18:09.708Z,100649.47
2023-02-23T07:20:38.009Z,100653.88
2023-02-23T07:23:05.885Z,100648.78
2023-02-23T07:25:33.763Z,100650.94
2023-02-23T07:28:02.720Z,100650.31
2023-02-23T07:30:30.595Z,100644.75
2023-02-23T07:32:58.488Z,100651.34
2023-02-23T07:35:26.459Z,100652.22
2023-02-23T07:37:55.750Z,100643.72
2023-02-23T07:40:24.157Z,100650.66
2023-02-23T07:42:52.551Z,100641.78
2023-02-23T07:45:20.470Z,100645.75
2023-02-23T07:47:48.843Z,100637.63
2023-02-23T07:50:16.996Z,100636.44
2023-02-23T07:52:45.007Z,100639.69
2023-02-23T07:55:13.208Z,100634.19
2023-02-23T07:57:44.475Z,100643.69
2023-02-23T08:00:13.134Z,100636.94
2023-02-23T08:02:41.048Z,100632.75
2023-02-23T08:05:09.194Z,100632.75
2023-02-23T08:07:37.611Z,100635.13
2023-02-23T08:10:06.272Z,100626.03
2023-02-23T08:12:34.682Z,100631.66
2023-02-23T08:15:13.948Z,100632.53
2023-02-23T08:17:41.922Z,100630.75
2023-02-23T08:20:11.054Z,100628.94
2023-02-23T08:22:49.475Z,100635.06
2023-02-23T08:25:18.517Z,100625.75
2023-02-23T08:27:47.191Z,100623.28
2023-02-23T08:30:15.751Z,100625.59
2023-02-23T08:32:43.661Z,100627.09
2023-02-23T08:35:12.018Z,100626.06
2023-02-23T08:37:41.866Z,100626.53
2023-02-23T08:40:12.175Z,100620.81
2023-02-23T08:42:43.421Z,100625.53
2023-02-23T08:45:13.985Z,100621.97
2023-02-23T08:47:42.233Z,100628.72
2023-02-23T08:50:12.578Z,100627.03
2023-02-23T08:52:41.992Z,100624.34
2023-02-23T08:55:11.741Z,100625.22
2023-02-23T08:57:39.859Z,100628.44
2023-02-23T09:00:14.137Z,100626.41
2023-02-23T09:02:48.113Z,100624.59
2023-02-23T09:05:17.587Z,100632.06
2023-02-23T09:07:48.998Z,100622.03
2023-02-23T09:10:20.472Z,100627.25
2023-02-23T09:12:51.343Z,100622.63
2023-02-23T09:15:19.697Z,100623.91
2023-02-23T09:17:48.150Z,100628.78
2023-02-23T09:20:17.675Z,100621.78
2023-02-23T09:22:48.724Z,100631.22
2023-02-23T09:25:22.485Z,100632.88
2023-02-23T09:27:59.615Z,100630.59
2023-02-23T09:30:28.272Z,100623.19
2023-02-23T09:32:56.445Z,100624.00
2023-02-23T09:35:25.531Z,100620.44
2023-02-23T09:37:56.274Z,100626.06
2023-02-23T09:40:39.156Z,100621.09
2023-02-23T09:43:33.719Z,100620.84
2023-02-23T09:47:04.380Z,100626.59
2023-02-23T09:49:39.568Z,100620.28
2023-02-23T09:52:28.502Z,100621.97
2023-02-23T09:54:58.084Z,100624.19
2023-02-23T09:57:43.729Z,100631.00
2023-02-23T10:00:27.720Z,100635.13
2023-02-23T10:03:12.619Z,100639.19
2023-02-23T10:05:54.286Z,100639.91
2023-02-23T10:09:26.599Z,100631.84
2023-02-23T10:12:33.749Z,100634.44
2023-02-23T10:15:43.890Z,100622.91
2023-02-23T10:18:47.411Z,100623.78
2023-02-23T10:21:26.832Z,100616.97
2023-02-23T10:24:32.978Z,100615.00
2023-02-23T10:27:18.571Z,100614.63
2023-02-23T10:30:00.650Z,100627.34
2023-02-23T10:32:50.226Z,100621.06
2023-02-23T10:35:24.557Z,100621.19
2023-02-23T10:37:54.372Z,100619.81
2023-02-23T10:40:29.096Z,100616.06
2023-02-23T10:42:58.657Z,100614.84
2023-02-23T10:45:29.792Z,100611.97
2023-02-23T10:48:24.860Z,100609.03
2023-02-23T10:51:02.718Z,100609.00
2023-02-23T10:53:38.974Z,100601.31
2023-02-23T10:56:14.594Z,100604.28
2023-02-23T10:59:02.465Z,100601.75
2023-02-23T11:02:00.478Z,100603.47
2023-02-23T11:04:35.814Z,100600.41
2023-02-23T11:07:29.640Z,100600.63
2023-02-23T11:10:00.310Z,100596.22
2023-02-23T11:12:41.845Z,100587.63
2023-02-23T11:15:32.024Z,100595.41
2023-02-23T11:18:07.569Z,100588.78
2023-02-23T11:20:41.659Z,100584.63
2023-02-23T11:23:34.318Z,100579.50
2023-02-23T11:26:35.874Z,100582.16
2023-02-23T11:29:28.278Z,100574.63
2023-02-23T11:31:59.277Z,100567.31
2023-02-23T11:34:35.429Z,100571.94
2023-02-23T11:37:14.410Z,100573.03
2023-02-23T11:40:04.037Z,100562.78
2023-02-23T11:42:33.431Z,100567.75
2023-02-23T11:45:20.848Z,100561.69
2023-02-23T11:47:59.402Z,100556.97
2023-02-23T11:50:36.407Z,100550.22
2023-02-23T11:53:15.351Z,100550.19
2023-02-23T11:55:55.676Z,100548.41
2023-02-23T11:58:40.443Z,100549.69
2023-02-23T12:01:14.187Z,100545.75
2023-02-23T12:04:00.262Z,100547.78
2023-02-23T12:06:41.853Z,100545.47
2023-02-23T12:09:34.084Z,100537.63
2023-02-23T12:12:18.922Z,100532.59
2023-02-23T12:15:09.235Z,100533.84
2023-02-23T12:17:50.092Z,100528.38
2023-02-23T12:20:41.187Z,100529.28
2023-02-23T12:23:28.420Z,100524.28
2023-02-23T12:26:22.725Z,100526.13
2023-02-23T12:29:06.245Z,100527.00
2023-02-23T12:32:08.969Z,100526.06
2023-02-23T12:35:06.313Z,100523.09
2023-02-23T12:37:58.581Z,100524.03
2023-02-23T12:40:36.636Z,100519.81
2023-02-23T12:43:37.604Z,100516.09
2023-02-23T12:46:22.106Z,100506.41
2023-02-23T12:49:43.314Z,100505.13
2023-02-23T12:52:26.985Z,100505.16
2023-02-23T12:54:55.909Z,100513.31
2023-02-23T12:58:25.864Z,100504.06
2023-02-23T13:01:05.978Z,100509.28
2023-02-23T13:03:50.651Z,100508.81
2023-02-23T13:06:39.116Z,100508.00
2023-02-23T13:10:16.180Z,100496.72
2023-02-23T13:13:16.752Z,100494.75
2023-02-23T13:16:10.511Z,100486.78
2023-02-23T13:19:15.169Z,100483.00
2023-02-23T13:21:53.850Z,100478.50
2023-02-23T13:24:36.538Z,100474.50
2023-02-23T13:27:23.423Z,100479.75
2023-02-23T13:29:54.969Z,100476.44
2023-02-23T13:32:32.230Z,100475.56
2023-02-23T13:35:08.352Z,100470.59
2023-02-23T13:38:08.209Z,100485.94
2023-02-23T13:40:44.357Z,100479.41
2023-02-23T13:43:49.189Z,100473.78
2023-02-23T13:46:53.794Z,100480.38
2023-02-23T13:49:47.123Z,100485.06
2023-02-23T13:52:41.459Z,100492.34
2023-02-23T13:55:32.628Z,100485.66
2023-02-23T13:58:22.402Z,100486.47
2023-02-23T14:01:43.612Z,100487.44
2023-02-23T14:04:34.426Z,100480.81
2023-02-23T14:07:11.480Z,100491.34
2023-02-23T14:09:56.536Z,100492.25
2023-02-23T14:13:06.312Z,100491.31
2023-02-23T14:15:40.395Z,100490.97
2023-02-23T14:18:26.316Z,100491.56
2023-02-23T14:21:29.305Z,100492.63
2023-02-23T14:24:19.335Z,100491.25
2023-02-23T14:27:41.445Z,100493.44
2023-02-23T14:30:19.810Z,100487.91
2023-02-23T14:32:50.525Z,100499.53
2023-02-23T14:35:33.760Z,100500.31
2023-02-23T14:38:47.578Z,100500.13
2023-02-23T14:41:28.281Z,100499.75
2023-02-23T14:44:43.295Z,100497.13
2023-02-23T14:47:20.698Z,100497.91
2023-02-23T14:50:18.905Z,100501.59
2023-02-23T14:52:47.505Z,100498.97
2023-02-23T14:55:29.411Z,100501.59
2023-02-23T14:57:58.917Z,100503.88
2023-02-23T15:00:43.853Z,100503.88
2023-02-23T15:03:13.848Z,100498.84
2023-02-23T15:05:57.564Z,100504.25
2023-02-23T15:08:30.046Z,100498.28
2023-02-23T15:11:18.889Z,100505.09
2023-02-23T15:13:52.178Z,100495.84
2023-02-23T15:16:36.288Z,100491.69
2023-02-23T15:19:05.441Z,100487.28
2023-02-23T15:21:35.761Z,100493.63
2023-02-23T15:24:22.924Z,100488.94
2023-02-23T15:26:52.042Z,100487.13
2023-02-23T15:29:30.594Z,100486.16
2023-02-23T15:32:24.752Z,100483.66
2023-02-23T15:34:55.884Z,100481.44
2023-02-23T15:40:23.842Z,100482.84
2023-02-23T15:43:00.597Z,100479.25
2023-02-23T15:45:48.813Z,100484.78
2023-02-23T15:48:27.883Z,100480.97
2023-02-23T15:50:57.835Z,100483.69
2023-02-23T15:53:41.025Z,100485.34
2023-02-23T15:56:20.186Z,100474.31
2023-02-23T15:58:57.280Z,100470.16
2023-02-23T16:01:30.354Z,100469.78
2023-02-23T16:04:08.325Z,100479.56
2023-02-23T16:06:53.216Z,100474.19
2023-02-23T16:09:21.674Z,100474.31
2023-02-23T16:12:20.534Z,100471.28
2023-02-23T16:15:03.343Z,100480.81
2023-02-23T16:17:52.183Z,100478.88
2023-02-23T16:20:42.558Z,100480.34
2023-02-23T16:23:59.386Z,100482.16
2023-02-23T16:26:48.003Z,100480.22
2023-02-23T16:29:44.408Z,100479.09
2023-02-23T16:32:20.831Z,100478.63
2023-02-23T16:35:01.754Z,100480.19
2023-02-23T16:37:29.930Z,100473.44
2023-02-23T16:39:57.896Z,100475.22
2023-02-23T16:42:33.563Z,100468.03
2023-02-23T16:45:02.163Z,100473.97
2023-02-23T16:47:48.238Z,100473.56
2023-02-23T16:50:24.301Z,100483.06
2023-02-23T16:52:53.630Z,100472.56
2023-02-23T16:55:28.723Z,100483.16
2023-02-23T16:58:07.821Z,100485.50
2023-02-23T17:00:35.860Z,100488.84
2023-02-23T17:03:06.667Z,100486.06
2023-02-23T17:05:34.605Z,100486.28
2023-02-23T17:08:02.858Z,100488.91
2023-02-23T17:10:34.841Z,100484.38
2023-02-23T17:13:18.791Z,100483.78
2023-02-23T17:15:51.864Z,100487.22
2023-02-23T17:20:55.303Z,100487.22
2023-02-23T17:23:29.700Z,100480.72
2023-02-23T17:25:58.354Z,100486.41
2023-02-23T17:28:26.267Z,100483.22
2023-02-23T17:30:54.298Z,100480.72
2023-02-23T17:33:26.989Z,100486.22
2023-02-23T17:35:55.238Z,100485.16
2023-02-23T17:38:23.154Z,100484.06
2023-02-23T17:40:51.001Z,100488.03
2023-02-23T17:43:21.557Z,100487.03
2023-02-23T17:45:50.579Z,100484.81
2023-02-23T17:48:18.650Z,100483.69
2023-02-23T17:50:46.488Z,100484.41
2023-02-23T17:53:14.398Z,100483.16
2023-02-23T17:55:42.368Z,100483.44
2023-02-23T17:58:10.795Z,100483.34
2023-02-23T18:00:39.742Z,100475.09
2023-02-23T18:03:07.694Z,100476.34
2023-02-23T18:05:35.920Z,100476.81
2023-02-23T18:08:03.778Z,100473.31
2023-02-23T18:10:31.636Z,100467.31
2023-02-23T18:12:59.455Z,100472.03
2023-02-23T18:15:27.439Z,100470.94
2023-02-23T18:17:57.437Z,100471.34
2023-02-23T18:20:26.164Z,100465.94
2023-02-23T18:22:54.086Z,100466.03
2023-02-23T18:25:31.108Z,100465.66
2023-02-23T18:27:59.696Z,100464.91
2023-02-23T18:30:27.622Z,100462.59
2023-02-23T18:33:00.525Z,100462.38
2023-02-23T18:35:33.196Z,100454.84
2023-02-23T18:38:01.493Z,100455.38
2023-02-23T18:40:29.492Z,100459.25
2023-02-23T18:42:58.966Z,100454.69
2023-02-23T18:45:27.658Z,100453.91
2023-02-23T18:47:56.307Z,100452.09
2023-02-23T18:50:26.260Z,100458.25
2023-02-23T18:52:56.583Z,100459.16
2023-02-23T18:55:24.756Z,100456.94
2023-02-23T18:57:53.081Z,100453.56
2023-02-23T19:00:21.740Z,100460.53
2023-02-23T19:02:49.769Z,100456.13
2023-02-23T19:05:20.760Z,100457.00
2023-02-23T19:07:49.556Z,100455.34
2023-02-23T19:10:17.428Z,100456.72
2023-02-23T19:12:45.322Z,100452.41
2023-02-23T19:15:13.397Z,100452.63
2023-02-23T19:17:41.394Z,100451.50
2023-02-23T19:20:13.726Z,100441.91
2023-02-23T19:22:42.799Z,100442.56
2023-02-23T19:25:14.193Z,100440.91
2023-02-23T19:27:42.877Z,100430.59
2023-02-23T19:30:12.406Z,100432.81
2023-02-23T19:32:40.614Z,100443.75
2023-02-23T19:35:14.772Z,100436.38
2023-02-23T19:37:52.701Z,100438.44
2023-02-23T19:40:23.867Z,100436.66
2023-02-23T19:42:52.965Z,100432.38
2023-02-23T19:45:21.799Z,100430.72
2023-02-23T19:47:53.240Z,100434.72
2023-02-23T19:50:21.560Z,100438.50
2023-02-23T19:52:49.923Z,100435.50
2023-02-23T19:55:20.178Z,100432.09
2023-02-23T19:57:48.168Z,100437.56
2023-02-23T20:00:16.798Z,100445.44
2023-02-23T20:02:44.713Z,100438.56
2023-02-23T20:05:16.269Z,100437.09
2023-02-23T20:07:44.601Z,100438.19
2023-02-23T20:10:16.108Z,100443.72
2023-02-23T20:12:44.508Z,100444.97
2023-02-23T20:15:14.817Z,100444.84
2023-02-23T20:17:42.785Z,100451.59
2023-02-23T20:20:11.858Z,100451.81
2023-02-23T20:22:43.178Z,100450.41
2023-02-23T20:25:16.356Z,100452.91
2023-02-23T20:27:44.824Z,100446.78
2023-02-23T20:30:13.700Z,100450.25
2023-02-23T20:32:41.707Z,100451.66
2023-02-23T20:35:12.890Z,100445.13
2023-02-23T20:37:42.117Z,100450.53
2023-02-23T20:40:17.471Z,100447.75
2023-02-23T20:42:48.313Z,100449.09
2023-02-23T20:45:21.750Z,100439.19
2023-02-23T20:47:53.560Z,100438.53
2023-02-23T20:50:33.969Z,100438.75
2023-02-23T20:53:05.410Z,100428.19
2023-02-23T20:55:33.457Z,100427.97
2023-02-23T20:58:01.633Z,100429.16
2023-02-23T21:00:32.083Z,100424.75
2023-02-23T21:03:02.680Z,100423.91
2023-02-23T21:05:40.408Z,100426.63
2023-02-23T21:08:10.486Z,100428.53
2023-02-23T21:10:40.118Z,100423.47
2023-02-23T21:13:12.321Z,100430.84
2023-02-23T21:15:42.551Z,100426.94
2023-02-23T21:18:11.083Z,100424.03
2023-02-23T21:20:40.091Z,100426.41
2023-02-23T21:23:08.015Z,100422.16
2023-02-23T21:25:35.975Z,100423.25
2023-02-23T21:28:03.880Z,100422.13
2023-02-23T21:30:31.875Z,100420.50
2023-02-23T21:33:00.193Z,100422.50
2023-02-23T21:35:28.240Z,100418.94
2023-02-23T21:37:56.928Z,100420.16
2023-02-23T21:40:24.919Z,100423.81
2023-02-23T21:42:53.242Z,100417.13
2023-02-23T21:45:21.404Z,100417.97
2023-02-23T21:47:49.639Z,100409.44
2023-02-23T21:50:19.665Z,100412.63
2023-02-23T21:52:48.716Z,100407.53
2023-02-23T21:55:21.916Z,100406.38
2023-02-23T21:57:51.759Z,100398.97
2023-02-23T22:00:21.523Z,100399.81
2023-02-23T22:02:50.697Z,100399.34
2023-02-23T22:05:19.677Z,100402.66
2023-02-23T22:07:51.435Z,100393.91
2023-02-23T22:10:24.843Z,100393.53
2023-02-23T22:12:56.746Z,100385.69
2023-02-23T22:15:27.871Z,100388.06
2023-02-23T22:17:56.576Z,100387.25
2023-02-23T22:20:25.960Z,100385.69
2023-02-23T22:22:53.961Z,100384.03
2023-02-23T22:25:22.030Z,100387.59
2023-02-23T22:27:50.007Z,100383.19
2023-02-23T22:30:20.430Z,100376.31
2023-02-23T22:32:48.659Z,100381.41
2023-02-23T22:35:16.868Z,100375.59
2023-02-23T22:37:47.386Z,100368.47
2023-02-23T22:40:18.209Z,100369.91
2023-02-23T22:42:48.404Z,100370.38
2023-02-23T22:45:17.959Z,100362.56
2023-02-23T22:47:45.992Z,100361.25
2023-02-23T22:50:17.813Z,100359.34
2023-02-23T22:52:47.011Z,100357.44
2023-02-23T22:55:14.984Z,100350.44
2023-02-23T22:57:43.066Z,100352.13
2023-02-23T23:00:20.737Z,100345.22
2023-02-23T23:02:48.920Z,100347.09
2023-02-23T23:05:17.791Z,100342.63
2023-02-23T23:07:48.678Z,100350.44
2023-02-23T23:10:18.740Z,100348.06
2023-02-23T23:12:46.965Z,100343.31
2023-02-23T23:15:17.023Z,100341.16
2023-02-23T23:17:48.347Z,100331.09
2023-02-23T23:20:25.536Z,100336.56
2023-02-23T23:22:56.992Z,100329.88
2023-02-23T23:25:25.092Z,100325.28
2023-02-23T23:27:53.006Z,100331.44
2023-02-23T23:30:21.276Z,100320.38
2023-02-23T23:32:50.346Z,100323.94
2023-02-23T23:35:21.789Z,100323.38
2023-02-23T23:37:52.878Z,100324.31
2023-02-23T23:40:24.256Z,100328.84
2023-02-23T23:42:52.561Z,100321.84
2023-02-23T23:45:24.215Z,100315.06
2023-02-23T23:47:52.353Z,100325.28
2023-02-23T23:50:26.414Z,100322.09
2023-02-23T23:52:54.438Z,100315.22
2023-02-23T23:55:22.308Z,100312.19
2023-02-23T23:57:50.145Z,100311.16
